sensor_id;sensor_type;location;lat;lon;timestamp;P1;durP1;ratioP1;P2;durP2;ratioP2
46318;SDS011;32042;50.916;2.926;2023-07-13T00:01:47;15.87;;;2.63;;
46318;SDS011;32042;50.916;2.926;2023-07-13T00:04:15;10.45;;;2.50;;
46318;SDS011;32042;50.916;2.926;2023-07-13T00:06:42;12.43;;;2.92;;
46318;SDS011;32042;50.916;2.926;2023-07-13T00:09:11;10.37;;;2.57;;
46318;SDS011;32042;50.916;2.926;2023-07-13T00:11:40;11.27;;;2.93;;
46318;SDS011;32042;50.916;2.926;2023-07-13T00:14:06;9.23;;;3.28;;
46318;SDS011;32042;50.916;2.926;2023-07-13T00:16:36;12.73;;;3.03;;
46318;SDS011;32042;50.916;2.926;2023-07-13T00:19:03;10.02;;;3.38;;
46318;SDS011;32042;50.916;2.926;2023-07-13T00:21:30;8.60;;;2.40;;
46318;SDS011;32042;50.916;2.926;2023-07-13T00:23:56;10.73;;;2.97;;
46318;SDS011;32042;50.916;2.926;2023-07-13T00:26:23;9.55;;;2.65;;
46318;SDS011;32042;50.916;2.926;2023-07-13T00:28:48;11.10;;;3.20;;
46318;SDS011;32042;50.916;2.926;2023-07-13T00:31:14;13.65;;;3.10;;
46318;SDS011;32042;50.916;2.926;2023-07-13T00:33:40;12.13;;;3.03;;
46318;SDS011;32042;50.916;2.926;2023-07-13T00:36:07;12.75;;;3.10;;
46318;SDS011;32042;50.916;2.926;2023-07-13T00:38:34;12.02;;;2.92;;
46318;SDS011;32042;50.916;2.926;2023-07-13T00:41:00;9.98;;;3.53;;
46318;SDS011;32042;50.916;2.926;2023-07-13T00:43:27;10.77;;;3.47;;
46318;SDS011;32042;50.916;2.926;2023-07-13T00:48:24;10.75;;;3.45;;
46318;SDS011;32042;50.916;2.926;2023-07-13T00:50:53;8.45;;;2.65;;
46318;SDS011;32042;50.916;2.926;2023-07-13T00:53:22;9.68;;;3.00;;
46318;SDS011;32042;50.916;2.926;2023-07-13T00:55:51;13.38;;;2.80;;
46318;SDS011;32042;50.916;2.926;2023-07-13T00:58:18;15.37;;;3.23;;
46318;SDS011;32042;50.916;2.926;2023-07-13T01:00:44;12.47;;;3.57;;
46318;SDS011;32042;50.916;2.926;2023-07-13T01:03:13;11.27;;;3.73;;
46318;SDS011;32042;50.916;2.926;2023-07-13T01:05:39;12.03;;;3.53;;
46318;SDS011;32042;50.916;2.926;2023-07-13T01:08:05;8.60;;;2.85;;
46318;SDS011;32042;50.916;2.926;2023-07-13T01:10:31;10.70;;;3.25;;
46318;SDS011;32042;50.916;2.926;2023-07-13T01:13:04;16.97;;;3.27;;
46318;SDS011;32042;50.916;2.926;2023-07-13T01:15:42;11.23;;;3.58;;
46318;SDS011;32042;50.916;2.926;2023-07-13T01:18:11;11.85;;;3.45;;
46318;SDS011;32042;50.916;2.926;2023-07-13T01:20:56;19.47;;;3.83;;
46318;SDS011;32042;50.916;2.926;2023-07-13T01:23:24;13.83;;;3.27;;
46318;SDS011;32042;50.916;2.926;2023-07-13T01:25:51;9.90;;;3.23;;
46318;SDS011;32042;50.916;2.926;2023-07-13T01:28:17;17.57;;;3.73;;
46318;SDS011;32042;50.916;2.926;2023-07-13T01:30:44;12.47;;;2.80;;
46318;SDS011;32042;50.916;2.926;2023-07-13T01:33:11;13.27;;;3.73;;
46318;SDS011;32042;50.916;2.926;2023-07-13T01:35:42;13.40;;;3.30;;
46318;SDS011;32042;50.916;2.926;2023-07-13T01:38:09;14.53;;;3.40;;
46318;SDS011;32042;50.916;2.926;2023-07-13T01:40:36;16.80;;;4.33;;
46318;SDS011;32042;50.916;2.926;2023-07-13T01:43:03;12.97;;;3.00;;
46318;SDS011;32042;50.916;2.926;2023-07-13T01:45:29;14.67;;;3.60;;
46318;SDS011;32042;50.916;2.926;2023-07-13T01:47:54;11.40;;;3.17;;
46318;SDS011;32042;50.916;2.926;2023-07-13T01:50:20;18.43;;;3.53;;
46318;SDS011;32042;50.916;2.926;2023-07-13T01:52:46;9.60;;;3.03;;
46318;SDS011;32042;50.916;2.926;2023-07-13T01:55:12;14.27;;;3.37;;
46318;SDS011;32042;50.916;2.926;2023-07-13T01:57:38;13.60;;;3.58;;
46318;SDS011;32042;50.916;2.926;2023-07-13T02:00:05;12.80;;;3.23;;
46318;SDS011;32042;50.916;2.926;2023-07-13T02:02:32;13.82;;;3.88;;
46318;SDS011;32042;50.916;2.926;2023-07-13T02:04:58;12.03;;;3.33;;
46318;SDS011;32042;50.916;2.926;2023-07-13T02:07:23;9.57;;;3.33;;
46318;SDS011;32042;50.916;2.926;2023-07-13T02:09:49;15.83;;;3.87;;
46318;SDS011;32042;50.916;2.926;2023-07-13T02:12:15;8.57;;;3.38;;
46318;SDS011;32042;50.916;2.926;2023-07-13T02:14:40;11.53;;;2.93;;
46318;SDS011;32042;50.916;2.926;2023-07-13T02:17:06;10.98;;;3.08;;
46318;SDS011;32042;50.916;2.926;2023-07-13T02:19:32;9.07;;;2.97;;
46318;SDS011;32042;50.916;2.926;2023-07-13T02:21:57;12.32;;;3.47;;
46318;SDS011;32042;50.916;2.926;2023-07-13T02:24:23;8.93;;;3.33;;
46318;SDS011;32042;50.916;2.926;2023-07-13T02:26:49;11.02;;;3.40;;
46318;SDS011;32042;50.916;2.926;2023-07-13T02:29:15;11.27;;;3.03;;
46318;SDS011;32042;50.916;2.926;2023-07-13T02:31:41;12.30;;;3.10;;
46318;SDS011;32042;50.916;2.926;2023-07-13T02:34:08;15.93;;;2.90;;
46318;SDS011;32042;50.916;2.926;2023-07-13T02:36:35;14.20;;;3.13;;
46318;SDS011;32042;50.916;2.926;2023-07-13T02:39:03;11.77;;;3.27;;
46318;SDS011;32042;50.916;2.926;2023-07-13T02:41:31;15.83;;;3.97;;
46318;SDS011;32042;50.916;2.926;2023-07-13T02:43:58;11.63;;;3.20;;
46318;SDS011;32042;50.916;2.926;2023-07-13T02:46:29;11.85;;;3.20;;
46318;SDS011;32042;50.916;2.926;2023-07-13T02:48:56;8.23;;;2.70;;
46318;SDS011;32042;50.916;2.926;2023-07-13T02:51:24;19.23;;;4.53;;
46318;SDS011;32042;50.916;2.926;2023-07-13T02:53:50;14.00;;;4.17;;
46318;SDS011;32042;50.916;2.926;2023-07-13T02:56:16;15.80;;;4.50;;
46318;SDS011;32042;50.916;2.926;2023-07-13T02:58:44;15.97;;;3.90;;
46318;SDS011;32042;50.916;2.926;2023-07-13T03:01:11;11.97;;;3.43;;
46318;SDS011;32042;50.916;2.926;2023-07-13T03:03:37;16.83;;;3.33;;
46318;SDS011;32042;50.916;2.926;2023-07-13T03:06:03;10.73;;;3.60;;
46318;SDS011;32042;50.916;2.926;2023-07-13T03:08:32;14.87;;;4.40;;
46318;SDS011;32042;50.916;2.926;2023-07-13T03:11:03;13.40;;;3.23;;
46318;SDS011;32042;50.916;2.926;2023-07-13T03:13:30;15.10;;;3.23;;
46318;SDS011;32042;50.916;2.926;2023-07-13T03:15:56;7.50;;;3.00;;
46318;SDS011;32042;50.916;2.926;2023-07-13T03:18:22;21.80;;;4.47;;
46318;SDS011;32042;50.916;2.926;2023-07-13T03:20:51;10.60;;;3.30;;
46318;SDS011;32042;50.916;2.926;2023-07-13T03:23:17;11.03;;;3.47;;
46318;SDS011;32042;50.916;2.926;2023-07-13T03:25:43;15.80;;;4.57;;
46318;SDS011;32042;50.916;2.926;2023-07-13T03:28:10;11.83;;;3.50;;
46318;SDS011;32042;50.916;2.926;2023-07-13T03:30:36;15.57;;;4.00;;
46318;SDS011;32042;50.916;2.926;2023-07-13T03:33:02;20.83;;;4.73;;
46318;SDS011;32042;50.916;2.926;2023-07-13T03:35:28;10.17;;;4.23;;
46318;SDS011;32042;50.916;2.926;2023-07-13T03:37:53;12.00;;;3.57;;
46318;SDS011;32042;50.916;2.926;2023-07-13T03:40:19;14.80;;;4.07;;
46318;SDS011;32042;50.916;2.926;2023-07-13T03:42:45;10.63;;;3.93;;
46318;SDS011;32042;50.916;2.926;2023-07-13T03:45:11;15.47;;;4.97;;
46318;SDS011;32042;50.916;2.926;2023-07-13T03:47:36;17.07;;;4.83;;
46318;SDS011;32042;50.916;2.926;2023-07-13T03:50:02;12.10;;;4.07;;
46318;SDS011;32042;50.916;2.926;2023-07-13T03:52:28;18.73;;;3.63;;
46318;SDS011;32042;50.916;2.926;2023-07-13T03:54:54;11.50;;;3.70;;
46318;SDS011;32042;50.916;2.926;2023-07-13T03:57:20;12.67;;;4.47;;
46318;SDS011;32042;50.916;2.926;2023-07-13T03:59:46;13.73;;;4.80;;
46318;SDS011;32042;50.916;2.926;2023-07-13T04:02:11;13.43;;;3.70;;
46318;SDS011;32042;50.916;2.926;2023-07-13T04:04:37;12.77;;;3.57;;
46318;SDS011;32042;50.916;2.926;2023-07-13T04:07:05;20.30;;;3.97;;
46318;SDS011;32042;50.916;2.926;2023-07-13T04:09:33;9.30;;;3.95;;
46318;SDS011;32042;50.916;2.926;2023-07-13T04:11:59;12.10;;;3.65;;
46318;SDS011;32042;50.916;2.926;2023-07-13T04:14:25;11.10;;;3.60;;
46318;SDS011;32042;50.916;2.926;2023-07-13T04:16:50;18.75;;;3.85;;
46318;SDS011;32042;50.916;2.926;2023-07-13T04:19:16;12.93;;;3.60;;
46318;SDS011;32042;50.916;2.926;2023-07-13T04:21:42;17.30;;;4.05;;
46318;SDS011;32042;50.916;2.926;2023-07-13T04:24:08;14.65;;;3.53;;
46318;SDS011;32042;50.916;2.926;2023-07-13T04:26:35;14.30;;;3.43;;
46318;SDS011;32042;50.916;2.926;2023-07-13T04:29:01;10.83;;;4.00;;
46318;SDS011;32042;50.916;2.926;2023-07-13T04:31:29;9.02;;;3.58;;
46318;SDS011;32042;50.916;2.926;2023-07-13T04:33:55;10.45;;;3.47;;
46318;SDS011;32042;50.916;2.926;2023-07-13T04:36:21;14.15;;;3.72;;
46318;SDS011;32042;50.916;2.926;2023-07-13T04:38:47;15.05;;;3.60;;
46318;SDS011;32042;50.916;2.926;2023-07-13T04:41:14;9.05;;;3.45;;
46318;SDS011;32042;50.916;2.926;2023-07-13T04:43:40;14.45;;;4.30;;
46318;SDS011;32042;50.916;2.926;2023-07-13T04:46:07;15.85;;;3.20;;
46318;SDS011;32042;50.916;2.926;2023-07-13T04:48:36;14.07;;;3.60;;
46318;SDS011;32042;50.916;2.926;2023-07-13T04:51:02;9.85;;;3.08;;
46318;SDS011;32042;50.916;2.926;2023-07-13T04:53:28;10.10;;;3.22;;
46318;SDS011;32042;50.916;2.926;2023-07-13T04:55:55;16.50;;;3.55;;
46318;SDS011;32042;50.916;2.926;2023-07-13T04:58:21;11.88;;;4.47;;
46318;SDS011;32042;50.916;2.926;2023-07-13T05:00:47;9.68;;;3.65;;
46318;SDS011;32042;50.916;2.926;2023-07-13T05:03:13;12.25;;;3.20;;
46318;SDS011;32042;50.916;2.926;2023-07-13T05:05:39;13.55;;;3.58;;
46318;SDS011;32042;50.916;2.926;2023-07-13T05:08:05;15.57;;;3.90;;
46318;SDS011;32042;50.916;2.926;2023-07-13T05:10:32;12.23;;;3.53;;
46318;SDS011;32042;50.916;2.926;2023-07-13T05:12:58;11.88;;;3.42;;
46318;SDS011;32042;50.916;2.926;2023-07-13T05:15:24;10.43;;;3.33;;
46318;SDS011;32042;50.916;2.926;2023-07-13T05:17:50;12.38;;;3.42;;
46318;SDS011;32042;50.916;2.926;2023-07-13T05:20:17;13.95;;;3.67;;
46318;SDS011;32042;50.916;2.926;2023-07-13T05:22:44;16.58;;;3.70;;
46318;SDS011;32042;50.916;2.926;2023-07-13T05:25:12;14.98;;;4.20;;
46318;SDS011;32042;50.916;2.926;2023-07-13T05:27:38;13.38;;;4.07;;
46318;SDS011;32042;50.916;2.926;2023-07-13T05:30:04;9.45;;;3.55;;
46318;SDS011;32042;50.916;2.926;2023-07-13T05:32:30;11.77;;;3.28;;
46318;SDS011;32042;50.916;2.926;2023-07-13T05:34:56;12.40;;;3.72;;
46318;SDS011;32042;50.916;2.926;2023-07-13T05:37:22;10.85;;;3.40;;
46318;SDS011;32042;50.916;2.926;2023-07-13T05:39:48;16.50;;;3.55;;
46318;SDS011;32042;50.916;2.926;2023-07-13T05:42:13;9.85;;;3.42;;
46318;SDS011;32042;50.916;2.926;2023-07-13T05:44:40;10.90;;;3.97;;
46318;SDS011;32042;50.916;2.926;2023-07-13T05:47:06;12.95;;;4.18;;
46318;SDS011;32042;50.916;2.926;2023-07-13T05:49:31;12.88;;;3.08;;
46318;SDS011;32042;50.916;2.926;2023-07-13T05:51:57;15.50;;;4.47;;
46318;SDS011;32042;50.916;2.926;2023-07-13T05:54:23;17.10;;;4.75;;
46318;SDS011;32042;50.916;2.926;2023-07-13T05:56:48;12.60;;;3.67;;
46318;SDS011;32042;50.916;2.926;2023-07-13T05:59:14;13.88;;;3.90;;
46318;SDS011;32042;50.916;2.926;2023-07-13T06:01:40;14.00;;;3.30;;
46318;SDS011;32042;50.916;2.926;2023-07-13T06:04:06;8.63;;;3.20;;
46318;SDS011;32042;50.916;2.926;2023-07-13T06:06:32;13.38;;;3.65;;
46318;SDS011;32042;50.916;2.926;2023-07-13T06:08:58;16.83;;;3.42;;
46318;SDS011;32042;50.916;2.926;2023-07-13T06:11:25;9.80;;;3.60;;
46318;SDS011;32042;50.916;2.926;2023-07-13T06:13:52;13.10;;;3.15;;
46318;SDS011;32042;50.916;2.926;2023-07-13T06:16:19;10.30;;;3.20;;
46318;SDS011;32042;50.916;2.926;2023-07-13T06:18:44;13.43;;;4.65;;
46318;SDS011;32042;50.916;2.926;2023-07-13T06:21:29;15.73;;;3.25;;
46318;SDS011;32042;50.916;2.926;2023-07-13T06:23:55;9.82;;;3.38;;
46318;SDS011;32042;50.916;2.926;2023-07-13T06:26:20;9.50;;;3.35;;
46318;SDS011;32042;50.916;2.926;2023-07-13T06:28:46;9.63;;;3.20;;
46318;SDS011;32042;50.916;2.926;2023-07-13T06:31:12;16.90;;;3.58;;
46318;SDS011;32042;50.916;2.926;2023-07-13T06:33:39;16.58;;;3.53;;
46318;SDS011;32042;50.916;2.926;2023-07-13T06:36:06;14.77;;;3.63;;
46318;SDS011;32042;50.916;2.926;2023-07-13T06:38:32;11.93;;;4.25;;
46318;SDS011;32042;50.916;2.926;2023-07-13T06:40:59;8.65;;;3.50;;
46318;SDS011;32042;50.916;2.926;2023-07-13T06:43:24;9.52;;;3.30;;
46318;SDS011;32042;50.916;2.926;2023-07-13T06:45:51;11.80;;;3.45;;
46318;SDS011;32042;50.916;2.926;2023-07-13T06:48:19;10.10;;;3.90;;
46318;SDS011;32042;50.916;2.926;2023-07-13T06:50:45;18.05;;;3.40;;
46318;SDS011;32042;50.916;2.926;2023-07-13T06:53:13;12.90;;;3.63;;
46318;SDS011;32042;50.916;2.926;2023-07-13T06:55:39;10.43;;;3.58;;
46318;SDS011;32042;50.916;2.926;2023-07-13T06:58:05;9.93;;;3.20;;
46318;SDS011;32042;50.916;2.926;2023-07-13T07:00:31;12.07;;;3.50;;
46318;SDS011;32042;50.916;2.926;2023-07-13T07:02:57;15.15;;;3.47;;
46318;SDS011;32042;50.916;2.926;2023-07-13T07:05:23;15.13;;;3.60;;
46318;SDS011;32042;50.916;2.926;2023-07-13T07:07:52;14.20;;;4.40;;
46318;SDS011;32042;50.916;2.926;2023-07-13T07:10:19;19.30;;;3.50;;
46318;SDS011;32042;50.916;2.926;2023-07-13T07:12:45;10.20;;;3.08;;
46318;SDS011;32042;50.916;2.926;2023-07-13T07:15:12;7.10;;;3.05;;
46318;SDS011;32042;50.916;2.926;2023-07-13T07:17:38;6.93;;;2.75;;
46318;SDS011;32042;50.916;2.926;2023-07-13T07:20:03;7.65;;;3.10;;
46318;SDS011;32042;50.916;2.926;2023-07-13T07:22:30;10.95;;;3.20;;
46318;SDS011;32042;50.916;2.926;2023-07-13T07:24:56;9.60;;;3.25;;
46318;SDS011;32042;50.916;2.926;2023-07-13T07:27:23;9.63;;;2.92;;
46318;SDS011;32042;50.916;2.926;2023-07-13T07:29:49;12.52;;;2.83;;
46318;SDS011;32042;50.916;2.926;2023-07-13T07:32:15;8.60;;;2.47;;
46318;SDS011;32042;50.916;2.926;2023-07-13T07:34:41;11.82;;;3.88;;
46318;SDS011;32042;50.916;2.926;2023-07-13T07:37:09;9.55;;;2.85;;
46318;SDS011;32042;50.916;2.926;2023-07-13T07:39:37;8.23;;;2.63;;
46318;SDS011;32042;50.916;2.926;2023-07-13T07:42:03;8.48;;;3.10;;
46318;SDS011;32042;50.916;2.926;2023-07-13T07:44:30;10.43;;;3.63;;
46318;SDS011;32042;50.916;2.926;2023-07-13T07:46:56;5.20;;;2.05;;
46318;SDS011;32042;50.916;2.926;2023-07-13T07:49:23;8.50;;;2.60;;
46318;SDS011;32042;50.916;2.926;2023-07-13T07:51:49;6.93;;;2.80;;
46318;SDS011;32042;50.916;2.926;2023-07-13T07:54:15;6.38;;;2.85;;
46318;SDS011;32042;50.916;2.926;2023-07-13T07:56:41;8.40;;;2.95;;
46318;SDS011;32042;50.916;2.926;2023-07-13T07:59:07;7.22;;;2.63;;
46318;SDS011;32042;50.916;2.926;2023-07-13T08:01:33;5.40;;;2.00;;
46318;SDS011;32042;50.916;2.926;2023-07-13T08:03:58;10.35;;;3.05;;
46318;SDS011;32042;50.916;2.926;2023-07-13T08:06:24;7.38;;;2.30;;
46318;SDS011;32042;50.916;2.926;2023-07-13T08:08:50;7.55;;;2.40;;
46318;SDS011;32042;50.916;2.926;2023-07-13T08:11:16;6.68;;;1.80;;
46318;SDS011;32042;50.916;2.926;2023-07-13T08:13:42;5.32;;;1.98;;
46318;SDS011;32042;50.916;2.926;2023-07-13T08:16:08;5.70;;;2.40;;
46318;SDS011;32042;50.916;2.926;2023-07-13T08:18:34;8.63;;;2.45;;
46318;SDS011;32042;50.916;2.926;2023-07-13T08:21:03;9.55;;;2.67;;
46318;SDS011;32042;50.916;2.926;2023-07-13T08:23:33;11.40;;;2.90;;
46318;SDS011;32042;50.916;2.926;2023-07-13T08:25:59;5.53;;;2.00;;
46318;SDS011;32042;50.916;2.926;2023-07-13T08:28:26;5.47;;;2.10;;
46318;SDS011;32042;50.916;2.926;2023-07-13T08:30:53;10.82;;;2.00;;
46318;SDS011;32042;50.916;2.926;2023-07-13T08:33:19;7.95;;;2.42;;
46318;SDS011;32042;50.916;2.926;2023-07-13T08:35:46;5.32;;;1.75;;
46318;SDS011;32042;50.916;2.926;2023-07-13T08:38:13;5.25;;;2.10;;
46318;SDS011;32042;50.916;2.926;2023-07-13T08:40:39;7.50;;;2.20;;
46318;SDS011;32042;50.916;2.926;2023-07-13T08:43:06;6.45;;;1.90;;
46318;SDS011;32042;50.916;2.926;2023-07-13T08:45:52;11.40;;;1.60;;
46318;SDS011;32042;50.916;2.926;2023-07-13T08:48:31;6.75;;;2.15;;
46318;SDS011;32042;50.916;2.926;2023-07-13T08:51:02;7.05;;;2.30;;
46318;SDS011;32042;50.916;2.926;2023-07-13T08:53:46;4.97;;;1.85;;
46318;SDS011;32042;50.916;2.926;2023-07-13T08:56:18;5.15;;;2.15;;
46318;SDS011;32042;50.916;2.926;2023-07-13T08:58:50;5.68;;;1.63;;
46318;SDS011;32042;50.916;2.926;2023-07-13T09:01:23;5.03;;;1.63;;
46318;SDS011;32042;50.916;2.926;2023-07-13T09:04:21;6.55;;;2.00;;
46318;SDS011;32042;50.916;2.926;2023-07-13T09:09:26;5.78;;;1.83;;
46318;SDS011;32042;50.916;2.926;2023-07-13T09:18:32;5.32;;;1.70;;
46318;SDS011;32042;50.916;2.926;2023-07-13T09:21:16;5.75;;;1.50;;
46318;SDS011;32042;50.916;2.926;2023-07-13T09:23:46;3.42;;;1.25;;
46318;SDS011;32042;50.916;2.926;2023-07-13T09:26:20;3.53;;;2.05;;
46318;SDS011;32042;50.916;2.926;2023-07-13T09:28:58;4.57;;;1.52;;
46318;SDS011;32042;50.916;2.926;2023-07-13T09:31:36;2.92;;;1.70;;
46318;SDS011;32042;50.916;2.926;2023-07-13T09:34:10;4.18;;;1.50;;
46318;SDS011;32042;50.916;2.926;2023-07-13T09:36:37;5.60;;;1.70;;
46318;SDS011;32042;50.916;2.926;2023-07-13T09:39:11;2.58;;;1.60;;
46318;SDS011;32042;50.916;2.926;2023-07-13T09:44:31;5.72;;;1.67;;
46318;SDS011;32042;50.916;2.926;2023-07-13T09:47:01;4.07;;;1.42;;
46318;SDS011;32042;50.916;2.926;2023-07-13T09:49:34;2.22;;;1.25;;
46318;SDS011;32042;50.916;2.926;2023-07-13T09:52:05;1.60;;;1.10;;
46318;SDS011;32042;50.916;2.926;2023-07-13T09:54:36;2.85;;;1.50;;
46318;SDS011;32042;50.916;2.926;2023-07-13T09:57:03;2.63;;;1.40;;
46318;SDS011;32042;50.916;2.926;2023-07-13T09:59:40;3.47;;;1.52;;
46318;SDS011;32042;50.916;2.926;2023-07-13T10:04:55;5.88;;;1.63;;
46318;SDS011;32042;50.916;2.926;2023-07-13T10:07:30;2.50;;;1.52;;
46318;SDS011;32042;50.916;2.926;2023-07-13T10:09:57;3.40;;;1.60;;
46318;SDS011;32042;50.916;2.926;2023-07-13T10:12:26;4.15;;;1.90;;
46318;SDS011;32042;50.916;2.926;2023-07-13T10:14:56;8.32;;;1.80;;
46318;SDS011;32042;50.916;2.926;2023-07-13T10:17:28;4.15;;;1.90;;
46318;SDS011;32042;50.916;2.926;2023-07-13T10:20:03;3.40;;;1.90;;
46318;SDS011;32042;50.916;2.926;2023-07-13T10:22:49;3.63;;;1.50;;
46318;SDS011;32042;50.916;2.926;2023-07-13T10:25:21;4.57;;;1.90;;
46318;SDS011;32042;50.916;2.926;2023-07-13T10:27:50;4.25;;;1.83;;
46318;SDS011;32042;50.916;2.926;2023-07-13T10:30:22;4.53;;;1.90;;
46318;SDS011;32042;50.916;2.926;2023-07-13T10:33:01;6.15;;;2.28;;
46318;SDS011;32042;50.916;2.926;2023-07-13T10:35:32;9.57;;;2.35;;
46318;SDS011;32042;50.916;2.926;2023-07-13T10:38:02;5.40;;;1.80;;
46318;SDS011;32042;50.916;2.926;2023-07-13T10:40:34;5.03;;;1.60;;
46318;SDS011;32042;50.916;2.926;2023-07-13T10:43:16;4.43;;;1.30;;
46318;SDS011;32042;50.916;2.926;2023-07-13T10:45:51;24.90;;;5.00;;
46318;SDS011;32042;50.916;2.926;2023-07-13T10:48:19;22.38;;;3.03;;
46318;SDS011;32042;50.916;2.926;2023-07-13T10:50:48;4.88;;;1.52;;
46318;SDS011;32042;50.916;2.926;2023-07-13T10:53:22;2.28;;;1.30;;
46318;SDS011;32042;50.916;2.926;2023-07-13T10:55:56;4.25;;;1.30;;
46318;SDS011;32042;50.916;2.926;2023-07-13T10:58:32;6.35;;;1.52;;
46318;SDS011;32042;50.916;2.926;2023-07-13T11:03:32;1.20;;;0.98;;
46318;SDS011;32042;50.916;2.926;2023-07-13T11:14:00;2.28;;;1.40;;
46318;SDS011;32042;50.916;2.926;2023-07-13T11:24:49;3.95;;;1.35;;
46318;SDS011;32042;50.916;2.926;2023-07-13T11:30:13;2.70;;;1.20;;
46318;SDS011;32042;50.916;2.926;2023-07-13T11:32:45;30.33;;;2.55;;
46318;SDS011;32042;50.916;2.926;2023-07-13T11:35:17;3.58;;;2.72;;
46318;SDS011;32042;50.916;2.926;2023-07-13T11:37:48;36.97;;;2.80;;
46318;SDS011;32042;50.916;2.926;2023-07-13T11:40:14;3.42;;;1.20;;
46318;SDS011;32042;50.916;2.926;2023-07-13T11:42:41;3.72;;;1.20;;
46318;SDS011;32042;50.916;2.926;2023-07-13T11:45:18;3.17;;;1.15;;
46318;SDS011;32042;50.916;2.926;2023-07-13T11:47:48;4.65;;;1.25;;
46318;SDS011;32042;50.916;2.926;2023-07-13T11:50:21;2.33;;;1.20;;
46318;SDS011;32042;50.916;2.926;2023-07-13T11:52:49;2.40;;;1.20;;
46318;SDS011;32042;50.916;2.926;2023-07-13T11:55:18;3.58;;;1.25;;
46318;SDS011;32042;50.916;2.926;2023-07-13T11:57:50;2.75;;;1.30;;
46318;SDS011;32042;50.916;2.926;2023-07-13T12:00:26;1.23;;;1.05;;
46318;SDS011;32042;50.916;2.926;2023-07-13T12:02:56;2.42;;;1.13;;
46318;SDS011;32042;50.916;2.926;2023-07-13T12:05:24;2.67;;;1.10;;
46318;SDS011;32042;50.916;2.926;2023-07-13T12:07:50;1.35;;;0.80;;
46318;SDS011;32042;50.916;2.926;2023-07-13T12:10:21;1.92;;;0.80;;
46318;SDS011;32042;50.916;2.926;2023-07-13T12:12:55;1.17;;;1.00;;
46318;SDS011;32042;50.916;2.926;2023-07-13T12:15:32;2.05;;;1.10;;
46318;SDS011;32042;50.916;2.926;2023-07-13T12:18:15;3.00;;;1.35;;
46318;SDS011;32042;50.916;2.926;2023-07-13T12:20:44;1.73;;;1.00;;
46318;SDS011;32042;50.916;2.926;2023-07-13T12:23:20;1.45;;;0.98;;
46318;SDS011;32042;50.916;2.926;2023-07-13T12:25:53;1.65;;;0.85;;
46318;SDS011;32042;50.916;2.926;2023-07-13T12:28:20;3.20;;;1.15;;
46318;SDS011;32042;50.916;2.926;2023-07-13T12:31:06;3.33;;;0.98;;
46318;SDS011;32042;50.916;2.926;2023-07-13T12:33:47;3.70;;;1.05;;
46318;SDS011;32042;50.916;2.926;2023-07-13T12:36:15;4.85;;;1.17;;
46318;SDS011;32042;50.916;2.926;2023-07-13T12:38:41;1.85;;;0.90;;
46318;SDS011;32042;50.916;2.926;2023-07-13T12:41:11;1.23;;;0.73;;
46318;SDS011;32042;50.916;2.926;2023-07-13T12:43:37;1.92;;;1.10;;
46318;SDS011;32042;50.916;2.926;2023-07-13T12:46:04;4.05;;;1.40;;
46318;SDS011;32042;50.916;2.926;2023-07-13T12:48:41;1.15;;;0.90;;
46318;SDS011;32042;50.916;2.926;2023-07-13T12:51:11;6.38;;;1.10;;
46318;SDS011;32042;50.916;2.926;2023-07-13T12:53:39;4.32;;;0.82;;
46318;SDS011;32042;50.916;2.926;2023-07-13T12:56:08;2.70;;;1.20;;
46318;SDS011;32042;50.916;2.926;2023-07-13T12:58:42;2.88;;;1.00;;
46318;SDS011;32042;50.916;2.926;2023-07-13T13:01:10;1.77;;;0.95;;
46318;SDS011;32042;50.916;2.926;2023-07-13T13:03:39;1.63;;;0.73;;
46318;SDS011;32042;50.916;2.926;2023-07-13T13:08:45;3.13;;;1.20;;
46318;SDS011;32042;50.916;2.926;2023-07-13T13:11:13;14.00;;;1.58;;
46318;SDS011;32042;50.916;2.926;2023-07-13T13:13:41;2.00;;;0.88;;
46318;SDS011;32042;50.916;2.926;2023-07-13T13:16:19;3.05;;;1.10;;
46318;SDS011;32042;50.916;2.926;2023-07-13T13:18:56;1.73;;;1.00;;
46318;SDS011;32042;50.916;2.926;2023-07-13T13:21:25;2.78;;;1.10;;
46318;SDS011;32042;50.916;2.926;2023-07-13T13:23:51;1.90;;;1.05;;
46318;SDS011;32042;50.916;2.926;2023-07-13T13:26:18;5.13;;;0.98;;
46318;SDS011;32042;50.916;2.926;2023-07-13T13:28:45;4.68;;;1.25;;
46318;SDS011;32042;50.916;2.926;2023-07-13T13:31:12;4.15;;;1.10;;
46318;SDS011;32042;50.916;2.926;2023-07-13T13:33:40;2.40;;;0.95;;
46318;SDS011;32042;50.916;2.926;2023-07-13T13:36:20;2.45;;;0.80;;
46318;SDS011;32042;50.916;2.926;2023-07-13T13:38:48;4.70;;;0.90;;
46318;SDS011;32042;50.916;2.926;2023-07-13T13:41:15;2.28;;;0.90;;
46318;SDS011;32042;50.916;2.926;2023-07-13T13:43:42;5.97;;;0.98;;
46318;SDS011;32042;50.916;2.926;2023-07-13T13:46:19;4.65;;;0.85;;
46318;SDS011;32042;50.916;2.926;2023-07-13T13:48:47;2.08;;;1.13;;
46318;SDS011;32042;50.916;2.926;2023-07-13T13:51:23;2.10;;;0.90;;
46318;SDS011;32042;50.916;2.926;2023-07-13T13:53:49;0.98;;;0.95;;
46318;SDS011;32042;50.916;2.926;2023-07-13T13:56:15;1.42;;;1.10;;
46318;SDS011;32042;50.916;2.926;2023-07-13T13:58:43;1.80;;;0.70;;
46318;SDS011;32042;50.916;2.926;2023-07-13T14:01:13;1.65;;;1.20;;
46318;SDS011;32042;50.916;2.926;2023-07-13T14:03:44;1.77;;;0.95;;
46318;SDS011;32042;50.916;2.926;2023-07-13T14:06:14;1.38;;;0.75;;
46318;SDS011;32042;50.916;2.926;2023-07-13T14:08:40;1.40;;;0.90;;
46318;SDS011;32042;50.916;2.926;2023-07-13T14:11:07;2.38;;;1.00;;
46318;SDS011;32042;50.916;2.926;2023-07-13T14:13:42;2.38;;;0.98;;
46318;SDS011;32042;50.916;2.926;2023-07-13T14:16:17;2.72;;;1.00;;
46318;SDS011;32042;50.916;2.926;2023-07-13T14:18:45;3.60;;;1.15;;
46318;SDS011;32042;50.916;2.926;2023-07-13T14:23:41;1.55;;;1.00;;
46318;SDS011;32042;50.916;2.926;2023-07-13T14:26:16;3.83;;;1.23;;
46318;SDS011;32042;50.916;2.926;2023-07-13T14:28:45;3.17;;;1.00;;
46318;SDS011;32042;50.916;2.926;2023-07-13T14:31:14;1.55;;;0.90;;
46318;SDS011;32042;50.916;2.926;2023-07-13T14:33:41;3.00;;;1.02;;
46318;SDS011;32042;50.916;2.926;2023-07-13T14:38:42;1.60;;;1.10;;
46318;SDS011;32042;50.916;2.926;2023-07-13T14:41:07;3.40;;;1.05;;
46318;SDS011;32042;50.916;2.926;2023-07-13T14:43:33;3.78;;;0.95;;
46318;SDS011;32042;50.916;2.926;2023-07-13T14:45:59;3.95;;;1.23;;
46318;SDS011;32042;50.916;2.926;2023-07-13T14:48:25;3.92;;;1.02;;
46318;SDS011;32042;50.916;2.926;2023-07-13T14:50:55;2.70;;;0.95;;
46318;SDS011;32042;50.916;2.926;2023-07-13T14:53:22;1.67;;;0.95;;
46318;SDS011;32042;50.916;2.926;2023-07-13T14:55:50;2.15;;;0.90;;
46318;SDS011;32042;50.916;2.926;2023-07-13T14:58:16;1.30;;;0.85;;
46318;SDS011;32042;50.916;2.926;2023-07-13T15:00:41;3.05;;;0.95;;
46318;SDS011;32042;50.916;2.926;2023-07-13T15:03:14;1.90;;;0.70;;
46318;SDS011;32042;50.916;2.926;2023-07-13T15:05:46;1.83;;;0.77;;
46318;SDS011;32042;50.916;2.926;2023-07-13T15:08:13;3.50;;;0.90;;
46318;SDS011;32042;50.916;2.926;2023-07-13T15:10:40;1.60;;;0.82;;
46318;SDS011;32042;50.916;2.926;2023-07-13T15:13:13;2.38;;;0.90;;
46318;SDS011;32042;50.916;2.926;2023-07-13T15:15:50;5.07;;;1.00;;
46318;SDS011;32042;50.916;2.926;2023-07-13T15:18:19;0.80;;;0.80;;
46318;SDS011;32042;50.916;2.926;2023-07-13T15:20:47;1.00;;;0.55;;
46318;SDS011;32042;50.916;2.926;2023-07-13T15:23:15;2.15;;;0.93;;
46318;SDS011;32042;50.916;2.926;2023-07-13T15:25:42;1.63;;;0.70;;
46318;SDS011;32042;50.916;2.926;2023-07-13T15:28:09;1.13;;;0.57;;
46318;SDS011;32042;50.916;2.926;2023-07-13T15:30:38;1.75;;;0.80;;
46318;SDS011;32042;50.916;2.926;2023-07-13T15:33:23;0.68;;;0.60;;
46318;SDS011;32042;50.916;2.926;2023-07-13T15:35:54;2.55;;;0.90;;